Skip Navigation Links Skip Navigation Links

Current Weather

Selfridge Angb, Mount Clemens, Mich.

For information only: do not use for flight planning or navigation.
Latest weather
Observation time Friday, May 29, 2020 5:56 PM EDT
Local time Friday, May 29, 2020 6:39 PM EDT
Flight conditions Visual Meteorological Conditions
Winds
Wind direction Northwest (320°)
Wind speed 10 mph
Visibility 10 mi.
Sky condition
Ceiling unlimited
Cloud layer scattered clouds 4,200 ft.
Temperature 68°F
Dewpoint 54°F
Altimeter 29.91 in.Hg
Derived measurements
Relative humidity 62%
Density altitude 1381 ft.
Sea-level pressure 29.92 in.Hg
Remarks
System requires maintenance.
Automated weather observing station with precipitation discriminator.
METAR KMTC 292156Z 32009KT 10SM SCT042 20/13 A2991 RMK AO2A SLP131 T02000125 $

Settings

Location code

InnerDrive.Weather 4.0.6770.0 Release CLR 4.0.30319.42000
Copyright ©2018 Inner Drive Technology. All rights reserved. Portions Copyright ©1986-2018 David Braverman.

Find weather

Site navigation


Skip Navigation Links

Place info

Page info

PayPal - The safer, easier way to pay online!

Return home.

Copyright ©2020 Inner Drive Technology. Purveyors of fine, hand-crafted computer software. Page printed 2020-05-29T22:39:47 UTC.